sensor_id;sensor_type;location;lat;lon;timestamp;P1;durP1;ratioP1;P2;durP2;ratioP2
37355;SDS011;48747;50.250;18.848;2022-07-12T00:01:21;5.42;;;3.58;;
37355;SDS011;48747;50.250;18.848;2022-07-12T00:03:24;9.00;;;4.17;;
37355;SDS011;48747;50.250;18.848;2022-07-12T00:05:27;7.40;;;3.77;;
37355;SDS011;48747;50.250;18.848;2022-07-12T00:07:30;8.05;;;4.25;;
37355;SDS011;48747;50.250;18.848;2022-07-12T00:09:33;5.92;;;4.10;;
37355;SDS011;48747;50.250;18.848;2022-07-12T00:11:36;6.17;;;3.62;;
37355;SDS011;48747;50.250;18.848;2022-07-12T00:13:40;5.85;;;3.65;;
37355;SDS011;48747;50.250;18.848;2022-07-12T00:15:43;7.12;;;4.22;;
37355;SDS011;48747;50.250;18.848;2022-07-12T00:17:46;5.97;;;3.85;;
37355;SDS011;48747;50.250;18.848;2022-07-12T00:19:49;6.70;;;4.00;;
37355;SDS011;48747;50.250;18.848;2022-07-12T00:21:52;5.97;;;3.60;;
37355;SDS011;48747;50.250;18.848;2022-07-12T00:23:55;5.55;;;3.80;;
37355;SDS011;48747;50.250;18.848;2022-07-12T00:25:59;7.40;;;3.95;;
37355;SDS011;48747;50.250;18.848;2022-07-12T00:28:03;6.42;;;3.55;;
37355;SDS011;48747;50.250;18.848;2022-07-12T00:30:07;8.48;;;3.62;;
37355;SDS011;48747;50.250;18.848;2022-07-12T00:32:10;4.97;;;3.10;;
37355;SDS011;48747;50.250;18.848;2022-07-12T00:34:13;5.35;;;3.35;;
37355;SDS011;48747;50.250;18.848;2022-07-12T00:36:16;5.72;;;3.52;;
37355;SDS011;48747;50.250;18.848;2022-07-12T00:38:21;6.17;;;3.58;;
37355;SDS011;48747;50.250;18.848;2022-07-12T00:40:24;11.48;;;3.92;;
37355;SDS011;48747;50.250;18.848;2022-07-12T00:42:27;4.60;;;3.35;;
37355;SDS011;48747;50.250;18.848;2022-07-12T00:44:30;8.18;;;3.75;;
37355;SDS011;48747;50.250;18.848;2022-07-12T00:46:35;7.17;;;4.15;;
37355;SDS011;48747;50.250;18.848;2022-07-12T00:48:38;9.25;;;3.87;;
37355;SDS011;48747;50.250;18.848;2022-07-12T00:50:41;5.17;;;3.47;;
37355;SDS011;48747;50.250;18.848;2022-07-12T00:52:44;5.78;;;3.60;;
37355;SDS011;48747;50.250;18.848;2022-07-12T00:54:49;6.70;;;3.60;;
37355;SDS011;48747;50.250;18.848;2022-07-12T00:56:52;6.80;;;4.05;;
37355;SDS011;48747;50.250;18.848;2022-07-12T00:58:55;7.58;;;4.22;;
37355;SDS011;48747;50.250;18.848;2022-07-12T01:00:58;8.88;;;3.92;;
37355;SDS011;48747;50.250;18.848;2022-07-12T01:03:02;5.53;;;3.72;;
37355;SDS011;48747;50.250;18.848;2022-07-12T01:05:06;5.37;;;3.83;;
37355;SDS011;48747;50.250;18.848;2022-07-12T01:07:10;8.08;;;4.22;;
37355;SDS011;48747;50.250;18.848;2022-07-12T01:09:13;6.72;;;3.77;;
37355;SDS011;48747;50.250;18.848;2022-07-12T01:11:16;8.55;;;3.60;;
37355;SDS011;48747;50.250;18.848;2022-07-12T01:13:19;9.88;;;3.70;;
37355;SDS011;48747;50.250;18.848;2022-07-12T01:15:22;7.75;;;4.37;;
37355;SDS011;48747;50.250;18.848;2022-07-12T01:17:26;8.48;;;3.67;;
37355;SDS011;48747;50.250;18.848;2022-07-12T01:19:32;6.12;;;3.80;;
37355;SDS011;48747;50.250;18.848;2022-07-12T01:21:36;5.80;;;3.67;;
37355;SDS011;48747;50.250;18.848;2022-07-12T01:23:39;6.62;;;3.52;;
37355;SDS011;48747;50.250;18.848;2022-07-12T01:25:43;7.10;;;3.60;;
37355;SDS011;48747;50.250;18.848;2022-07-12T01:27:46;9.83;;;3.30;;
37355;SDS011;48747;50.250;18.848;2022-07-12T01:29:49;8.35;;;3.47;;
37355;SDS011;48747;50.250;18.848;2022-07-12T01:31:52;6.67;;;3.67;;
37355;SDS011;48747;50.250;18.848;2022-07-12T01:33:55;7.05;;;3.80;;
37355;SDS011;48747;50.250;18.848;2022-07-12T01:35:58;4.92;;;3.33;;
37355;SDS011;48747;50.250;18.848;2022-07-12T01:38:01;9.08;;;4.00;;
37355;SDS011;48747;50.250;18.848;2022-07-12T01:40:06;6.90;;;4.00;;
37355;SDS011;48747;50.250;18.848;2022-07-12T01:42:10;6.55;;;4.00;;
37355;SDS011;48747;50.250;18.848;2022-07-12T01:44:14;4.87;;;3.65;;
37355;SDS011;48747;50.250;18.848;2022-07-12T01:46:17;8.43;;;4.10;;
37355;SDS011;48747;50.250;18.848;2022-07-12T01:48:20;8.35;;;4.15;;
37355;SDS011;48747;50.250;18.848;2022-07-12T01:50:23;9.23;;;4.05;;
37355;SDS011;48747;50.250;18.848;2022-07-12T01:52:27;6.62;;;3.87;;
37355;SDS011;48747;50.250;18.848;2022-07-12T01:54:30;21.85;;;5.00;;
37355;SDS011;48747;50.250;18.848;2022-07-12T01:56:34;7.87;;;4.70;;
37355;SDS011;48747;50.250;18.848;2022-07-12T01:58:38;7.72;;;4.30;;
37355;SDS011;48747;50.250;18.848;2022-07-12T02:00:41;6.72;;;4.72;;
37355;SDS011;48747;50.250;18.848;2022-07-12T02:02:46;7.15;;;4.83;;
37355;SDS011;48747;50.250;18.848;2022-07-12T02:04:49;5.12;;;4.03;;
37355;SDS011;48747;50.250;18.848;2022-07-12T02:06:52;6.50;;;3.75;;
37355;SDS011;48747;50.250;18.848;2022-07-12T02:08:56;8.00;;;4.00;;
37355;SDS011;48747;50.250;18.848;2022-07-12T02:10:59;10.32;;;4.47;;
37355;SDS011;48747;50.250;18.848;2022-07-12T02:13:02;7.87;;;4.30;;
37355;SDS011;48747;50.250;18.848;2022-07-12T02:15:06;7.55;;;4.25;;
37355;SDS011;48747;50.250;18.848;2022-07-12T02:17:10;9.85;;;4.40;;
37355;SDS011;48747;50.250;18.848;2022-07-12T02:19:13;9.88;;;4.20;;
37355;SDS011;48747;50.250;18.848;2022-07-12T02:21:16;11.33;;;4.30;;
37355;SDS011;48747;50.250;18.848;2022-07-12T02:23:19;6.58;;;4.28;;
37355;SDS011;48747;50.250;18.848;2022-07-12T02:25:22;8.60;;;4.35;;
37355;SDS011;48747;50.250;18.848;2022-07-12T02:27:25;7.80;;;4.72;;
37355;SDS011;48747;50.250;18.848;2022-07-12T02:29:29;6.08;;;3.80;;
37355;SDS011;48747;50.250;18.848;2022-07-12T02:31:32;8.25;;;4.05;;
37355;SDS011;48747;50.250;18.848;2022-07-12T02:33:35;5.95;;;4.22;;
37355;SDS011;48747;50.250;18.848;2022-07-12T02:35:38;8.23;;;4.20;;
37355;SDS011;48747;50.250;18.848;2022-07-12T02:37:41;6.80;;;4.28;;
37355;SDS011;48747;50.250;18.848;2022-07-12T02:39:44;10.55;;;4.55;;
37355;SDS011;48747;50.250;18.848;2022-07-12T02:41:47;5.72;;;4.25;;
37355;SDS011;48747;50.250;18.848;2022-07-12T02:43:50;7.00;;;4.55;;
37355;SDS011;48747;50.250;18.848;2022-07-12T02:45:54;8.05;;;4.42;;
37355;SDS011;48747;50.250;18.848;2022-07-12T02:47:59;6.20;;;4.30;;
37355;SDS011;48747;50.250;18.848;2022-07-12T02:50:02;7.35;;;4.35;;
37355;SDS011;48747;50.250;18.848;2022-07-12T02:52:05;6.50;;;4.45;;
37355;SDS011;48747;50.250;18.848;2022-07-12T02:54:08;9.40;;;4.90;;
37355;SDS011;48747;50.250;18.848;2022-07-12T02:56:11;7.12;;;4.50;;
37355;SDS011;48747;50.250;18.848;2022-07-12T02:58:15;7.80;;;4.20;;
37355;SDS011;48747;50.250;18.848;2022-07-12T03:00:18;9.20;;;4.45;;
37355;SDS011;48747;50.250;18.848;2022-07-12T03:02:21;4.45;;;3.55;;
37355;SDS011;48747;50.250;18.848;2022-07-12T03:04:24;9.08;;;4.20;;
37355;SDS011;48747;50.250;18.848;2022-07-12T03:06:27;9.25;;;4.20;;
37355;SDS011;48747;50.250;18.848;2022-07-12T03:08:30;9.10;;;4.55;;
37355;SDS011;48747;50.250;18.848;2022-07-12T03:10:33;6.97;;;4.20;;
37355;SDS011;48747;50.250;18.848;2022-07-12T03:12:36;11.05;;;4.65;;
37355;SDS011;48747;50.250;18.848;2022-07-12T03:14:40;9.45;;;3.83;;
37355;SDS011;48747;50.250;18.848;2022-07-12T03:16:44;5.45;;;4.50;;
37355;SDS011;48747;50.250;18.848;2022-07-12T03:18:47;8.25;;;4.70;;
37355;SDS011;48747;50.250;18.848;2022-07-12T03:20:50;9.48;;;4.53;;
37355;SDS011;48747;50.250;18.848;2022-07-12T03:22:53;10.85;;;4.08;;
37355;SDS011;48747;50.250;18.848;2022-07-12T03:24:56;10.90;;;4.80;;
37355;SDS011;48747;50.250;18.848;2022-07-12T03:26:59;6.70;;;4.17;;
37355;SDS011;48747;50.250;18.848;2022-07-12T03:29:02;8.90;;;4.90;;
37355;SDS011;48747;50.250;18.848;2022-07-12T03:31:06;11.75;;;6.37;;
37355;SDS011;48747;50.250;18.848;2022-07-12T03:33:09;9.95;;;6.53;;
37355;SDS011;48747;50.250;18.848;2022-07-12T03:35:12;7.10;;;4.45;;
37355;SDS011;48747;50.250;18.848;2022-07-12T03:37:19;8.43;;;4.40;;
37355;SDS011;48747;50.250;18.848;2022-07-12T03:39:20;7.75;;;4.83;;
37355;SDS011;48747;50.250;18.848;2022-07-12T03:41:26;10.28;;;5.00;;
37355;SDS011;48747;50.250;18.848;2022-07-12T03:43:29;7.83;;;4.12;;
37355;SDS011;48747;50.250;18.848;2022-07-12T03:45:32;8.73;;;4.97;;
37355;SDS011;48747;50.250;18.848;2022-07-12T03:47:35;8.98;;;4.92;;
37355;SDS011;48747;50.250;18.848;2022-07-12T03:49:41;9.78;;;5.40;;
37355;SDS011;48747;50.250;18.848;2022-07-12T03:51:44;10.03;;;4.85;;
37355;SDS011;48747;50.250;18.848;2022-07-12T03:53:48;6.85;;;5.08;;
37355;SDS011;48747;50.250;18.848;2022-07-12T03:55:52;12.37;;;5.30;;
37355;SDS011;48747;50.250;18.848;2022-07-12T03:57:55;7.47;;;4.33;;
37355;SDS011;48747;50.250;18.848;2022-07-12T03:59:59;7.65;;;4.80;;
37355;SDS011;48747;50.250;18.848;2022-07-12T04:02:03;5.45;;;4.55;;
37355;SDS011;48747;50.250;18.848;2022-07-12T04:04:06;6.35;;;3.87;;
37355;SDS011;48747;50.250;18.848;2022-07-12T04:06:10;9.98;;;4.17;;
37355;SDS011;48747;50.250;18.848;2022-07-12T04:08:13;7.12;;;4.22;;
37355;SDS011;48747;50.250;18.848;2022-07-12T04:10:16;8.83;;;4.42;;
37355;SDS011;48747;50.250;18.848;2022-07-12T04:12:19;9.28;;;4.12;;
37355;SDS011;48747;50.250;18.848;2022-07-12T04:14:22;5.22;;;4.03;;
37355;SDS011;48747;50.250;18.848;2022-07-12T04:16:26;6.45;;;4.03;;
37355;SDS011;48747;50.250;18.848;2022-07-12T04:18:31;7.40;;;4.10;;
37355;SDS011;48747;50.250;18.848;2022-07-12T04:20:34;12.25;;;4.75;;
37355;SDS011;48747;50.250;18.848;2022-07-12T04:22:39;9.08;;;3.92;;
37355;SDS011;48747;50.250;18.848;2022-07-12T04:24:42;7.15;;;4.22;;
37355;SDS011;48747;50.250;18.848;2022-07-12T04:26:45;11.25;;;4.25;;
37355;SDS011;48747;50.250;18.848;2022-07-12T04:28:48;8.50;;;4.03;;
37355;SDS011;48747;50.250;18.848;2022-07-12T04:30:51;10.98;;;4.40;;
37355;SDS011;48747;50.250;18.848;2022-07-12T04:32:54;8.03;;;3.90;;
37355;SDS011;48747;50.250;18.848;2022-07-12T04:34:57;8.00;;;3.92;;
37355;SDS011;48747;50.250;18.848;2022-07-12T04:37:01;8.85;;;4.22;;
37355;SDS011;48747;50.250;18.848;2022-07-12T04:39:05;8.70;;;4.10;;
37355;SDS011;48747;50.250;18.848;2022-07-12T04:41:08;8.23;;;4.33;;
37355;SDS011;48747;50.250;18.848;2022-07-12T04:43:11;6.45;;;3.83;;
37355;SDS011;48747;50.250;18.848;2022-07-12T04:45:14;8.88;;;4.15;;
37355;SDS011;48747;50.250;18.848;2022-07-12T04:47:17;9.75;;;4.60;;
37355;SDS011;48747;50.250;18.848;2022-07-12T04:49:21;12.37;;;4.50;;
37355;SDS011;48747;50.250;18.848;2022-07-12T04:51:24;7.15;;;3.83;;
37355;SDS011;48747;50.250;18.848;2022-07-12T04:53:28;9.33;;;4.50;;
37355;SDS011;48747;50.250;18.848;2022-07-12T04:55:31;7.85;;;4.72;;
37355;SDS011;48747;50.250;18.848;2022-07-12T04:57:34;9.15;;;4.25;;
37355;SDS011;48747;50.250;18.848;2022-07-12T04:59:39;13.93;;;4.78;;
37355;SDS011;48747;50.250;18.848;2022-07-12T05:01:42;10.18;;;3.92;;
37355;SDS011;48747;50.250;18.848;2022-07-12T05:03:46;9.75;;;5.10;;
37355;SDS011;48747;50.250;18.848;2022-07-12T05:05:50;8.95;;;5.08;;
37355;SDS011;48747;50.250;18.848;2022-07-12T05:07:54;10.63;;;5.00;;
37355;SDS011;48747;50.250;18.848;2022-07-12T05:09:57;8.48;;;4.85;;
37355;SDS011;48747;50.250;18.848;2022-07-12T05:12:00;9.63;;;4.70;;
37355;SDS011;48747;50.250;18.848;2022-07-12T05:14:04;12.23;;;4.90;;
37355;SDS011;48747;50.250;18.848;2022-07-12T05:16:08;11.20;;;4.92;;
37355;SDS011;48747;50.250;18.848;2022-07-12T05:18:11;10.25;;;5.53;;
37355;SDS011;48747;50.250;18.848;2022-07-12T05:20:14;11.78;;;5.80;;
37355;SDS011;48747;50.250;18.848;2022-07-12T05:22:17;11.68;;;5.53;;
37355;SDS011;48747;50.250;18.848;2022-07-12T05:24:20;12.63;;;5.50;;
37355;SDS011;48747;50.250;18.848;2022-07-12T05:26:23;9.50;;;5.95;;
37355;SDS011;48747;50.250;18.848;2022-07-12T05:28:26;12.30;;;6.17;;
37355;SDS011;48747;50.250;18.848;2022-07-12T05:30:29;11.45;;;5.97;;
37355;SDS011;48747;50.250;18.848;2022-07-12T05:32:33;13.28;;;6.20;;
37355;SDS011;48747;50.250;18.848;2022-07-12T05:34:36;10.18;;;6.03;;
37355;SDS011;48747;50.250;18.848;2022-07-12T05:36:40;15.20;;;6.00;;
37355;SDS011;48747;50.250;18.848;2022-07-12T05:38:43;14.25;;;6.60;;
37355;SDS011;48747;50.250;18.848;2022-07-12T05:40:46;14.00;;;7.33;;
37355;SDS011;48747;50.250;18.848;2022-07-12T05:42:50;14.40;;;7.22;;
37355;SDS011;48747;50.250;18.848;2022-07-12T05:44:53;18.50;;;9.13;;
37355;SDS011;48747;50.250;18.848;2022-07-12T05:46:56;15.58;;;10.98;;
37355;SDS011;48747;50.250;18.848;2022-07-12T05:48:59;16.12;;;11.08;;
37355;SDS011;48747;50.250;18.848;2022-07-12T05:51:02;13.00;;;8.78;;
37355;SDS011;48747;50.250;18.848;2022-07-12T05:53:23;15.08;;;8.83;;
37355;SDS011;48747;50.250;18.848;2022-07-12T05:55:26;10.82;;;7.80;;
37355;SDS011;48747;50.250;18.848;2022-07-12T05:57:29;17.17;;;15.18;;
37355;SDS011;48747;50.250;18.848;2022-07-12T05:59:34;16.90;;;11.70;;
37355;SDS011;48747;50.250;18.848;2022-07-12T06:01:37;15.53;;;9.43;;
37355;SDS011;48747;50.250;18.848;2022-07-12T06:03:40;17.48;;;13.38;;
37355;SDS011;48747;50.250;18.848;2022-07-12T06:05:43;18.35;;;11.57;;
37355;SDS011;48747;50.250;18.848;2022-07-12T06:07:46;14.80;;;8.23;;
37355;SDS011;48747;50.250;18.848;2022-07-12T06:09:49;12.68;;;9.03;;
37355;SDS011;48747;50.250;18.848;2022-07-12T06:11:52;10.38;;;8.00;;
37355;SDS011;48747;50.250;18.848;2022-07-12T06:13:55;13.85;;;8.58;;
37355;SDS011;48747;50.250;18.848;2022-07-12T06:15:58;9.53;;;8.55;;
37355;SDS011;48747;50.250;18.848;2022-07-12T06:18:02;11.33;;;8.53;;
37355;SDS011;48747;50.250;18.848;2022-07-12T06:20:05;10.38;;;8.40;;
37355;SDS011;48747;50.250;18.848;2022-07-12T06:22:08;14.63;;;9.20;;
37355;SDS011;48747;50.250;18.848;2022-07-12T06:24:11;9.93;;;8.63;;
37355;SDS011;48747;50.250;18.848;2022-07-12T06:26:14;11.97;;;9.38;;
37355;SDS011;48747;50.250;18.848;2022-07-12T06:28:17;13.70;;;10.38;;
37355;SDS011;48747;50.250;18.848;2022-07-12T06:30:21;24.52;;;22.52;;
37355;SDS011;48747;50.250;18.848;2022-07-12T06:32:24;10.45;;;6.12;;
37355;SDS011;48747;50.250;18.848;2022-07-12T06:34:27;12.13;;;5.60;;
37355;SDS011;48747;50.250;18.848;2022-07-12T06:36:30;10.82;;;5.05;;
37355;SDS011;48747;50.250;18.848;2022-07-12T06:38:33;8.85;;;4.87;;
37355;SDS011;48747;50.250;18.848;2022-07-12T06:40:36;11.53;;;6.92;;
37355;SDS011;48747;50.250;18.848;2022-07-12T06:42:39;7.33;;;5.03;;
37355;SDS011;48747;50.250;18.848;2022-07-12T06:44:42;7.05;;;5.10;;
37355;SDS011;48747;50.250;18.848;2022-07-12T06:46:45;9.08;;;3.90;;
37355;SDS011;48747;50.250;18.848;2022-07-12T06:49:02;9.75;;;5.08;;
37355;SDS011;48747;50.250;18.848;2022-07-12T06:50:58;5.85;;;4.03;;
37355;SDS011;48747;50.250;18.848;2022-07-12T06:53:01;8.08;;;3.65;;
37355;SDS011;48747;50.250;18.848;2022-07-12T06:55:05;10.58;;;3.12;;
37355;SDS011;48747;50.250;18.848;2022-07-12T06:57:08;6.70;;;3.42;;
37355;SDS011;48747;50.250;18.848;2022-07-12T06:59:11;6.08;;;3.42;;
37355;SDS011;48747;50.250;18.848;2022-07-12T07:01:15;6.58;;;3.55;;
37355;SDS011;48747;50.250;18.848;2022-07-12T07:03:18;4.83;;;3.98;;
37355;SDS011;48747;50.250;18.848;2022-07-12T07:05:21;3.45;;;3.15;;
37355;SDS011;48747;50.250;18.848;2022-07-12T07:07:24;6.28;;;3.50;;
37355;SDS011;48747;50.250;18.848;2022-07-12T07:09:27;4.22;;;3.83;;
37355;SDS011;48747;50.250;18.848;2022-07-12T07:11:30;6.00;;;5.50;;
37355;SDS011;48747;50.250;18.848;2022-07-12T07:13:33;5.90;;;5.42;;
37355;SDS011;48747;50.250;18.848;2022-07-12T07:15:42;3.30;;;2.87;;
37355;SDS011;48747;50.250;18.848;2022-07-12T07:17:42;5.40;;;2.00;;
37355;SDS011;48747;50.250;18.848;2022-07-12T07:19:45;3.47;;;1.60;;
37355;SDS011;48747;50.250;18.848;2022-07-12T07:21:48;4.72;;;1.37;;
37355;SDS011;48747;50.250;18.848;2022-07-12T07:23:52;3.35;;;1.50;;
37355;SDS011;48747;50.250;18.848;2022-07-12T07:25:54;2.20;;;1.50;;
37355;SDS011;48747;50.250;18.848;2022-07-12T07:27:57;2.83;;;1.57;;
37355;SDS011;48747;50.250;18.848;2022-07-12T07:30:01;1.67;;;1.37;;
37355;SDS011;48747;50.250;18.848;2022-07-12T07:32:21;3.37;;;1.50;;
37355;SDS011;48747;50.250;18.848;2022-07-12T07:34:25;2.58;;;1.10;;
37355;SDS011;48747;50.250;18.848;2022-07-12T07:36:28;1.92;;;1.10;;
37355;SDS011;48747;50.250;18.848;2022-07-12T07:38:31;2.05;;;1.25;;
37355;SDS011;48747;50.250;18.848;2022-07-12T07:40:34;2.60;;;1.37;;
37355;SDS011;48747;50.250;18.848;2022-07-12T07:42:43;5.12;;;1.32;;
37355;SDS011;48747;50.250;18.848;2022-07-12T07:44:42;1.92;;;1.32;;
37355;SDS011;48747;50.250;18.848;2022-07-12T07:46:59;7.15;;;1.60;;
37355;SDS011;48747;50.250;18.848;2022-07-12T07:49:02;3.98;;;1.32;;
37355;SDS011;48747;50.250;18.848;2022-07-12T07:51:05;4.28;;;1.22;;
37355;SDS011;48747;50.250;18.848;2022-07-12T07:53:09;4.08;;;1.75;;
37355;SDS011;48747;50.250;18.848;2022-07-12T07:55:12;2.42;;;1.12;;
37355;SDS011;48747;50.250;18.848;2022-07-12T07:57:15;3.02;;;1.40;;
37355;SDS011;48747;50.250;18.848;2022-07-12T07:59:18;3.25;;;1.52;;
37355;SDS011;48747;50.250;18.848;2022-07-12T08:01:21;3.05;;;1.50;;
37355;SDS011;48747;50.250;18.848;2022-07-12T08:03:42;6.67;;;1.35;;
37355;SDS011;48747;50.250;18.848;2022-07-12T08:05:45;2.77;;;1.22;;
37355;SDS011;48747;50.250;18.848;2022-07-12T08:07:49;11.83;;;1.90;;
37355;SDS011;48747;50.250;18.848;2022-07-12T08:09:54;3.37;;;2.05;;
37355;SDS011;48747;50.250;18.848;2022-07-12T08:11:57;4.85;;;1.60;;
37355;SDS011;48747;50.250;18.848;2022-07-12T08:14:04;5.17;;;1.65;;
37355;SDS011;48747;50.250;18.848;2022-07-12T08:16:08;4.75;;;1.70;;
37355;SDS011;48747;50.250;18.848;2022-07-12T08:18:13;5.05;;;1.80;;
37355;SDS011;48747;50.250;18.848;2022-07-12T08:20:16;6.10;;;1.50;;
37355;SDS011;48747;50.250;18.848;2022-07-12T08:22:19;2.85;;;1.20;;
37355;SDS011;48747;50.250;18.848;2022-07-12T08:24:22;3.27;;;1.20;;
37355;SDS011;48747;50.250;18.848;2022-07-12T08:26:26;4.12;;;1.47;;
37355;SDS011;48747;50.250;18.848;2022-07-12T08:28:29;4.58;;;1.40;;
37355;SDS011;48747;50.250;18.848;2022-07-12T08:30:37;7.95;;;1.67;;
37355;SDS011;48747;50.250;18.848;2022-07-12T08:32:36;3.62;;;1.27;;
37355;SDS011;48747;50.250;18.848;2022-07-12T08:34:41;2.33;;;1.60;;
37355;SDS011;48747;50.250;18.848;2022-07-12T08:36:44;5.10;;;1.20;;
37355;SDS011;48747;50.250;18.848;2022-07-12T08:38:47;5.17;;;1.50;;
37355;SDS011;48747;50.250;18.848;2022-07-12T08:40:50;5.50;;;1.25;;
37355;SDS011;48747;50.250;18.848;2022-07-12T08:42:56;6.97;;;1.52;;
37355;SDS011;48747;50.250;18.848;2022-07-12T08:45:05;4.12;;;1.45;;
37355;SDS011;48747;50.250;18.848;2022-07-12T08:47:11;5.40;;;2.00;;
37355;SDS011;48747;50.250;18.848;2022-07-12T08:49:14;3.70;;;1.35;;
37355;SDS011;48747;50.250;18.848;2022-07-12T08:51:19;3.77;;;1.60;;
37355;SDS011;48747;50.250;18.848;2022-07-12T08:53:23;4.80;;;1.67;;
37355;SDS011;48747;50.250;18.848;2022-07-12T08:55:29;8.63;;;1.37;;
37355;SDS011;48747;50.250;18.848;2022-07-12T08:57:32;5.42;;;1.47;;
37355;SDS011;48747;50.250;18.848;2022-07-12T08:59:35;3.90;;;1.30;;
37355;SDS011;48747;50.250;18.848;2022-07-12T09:01:38;5.03;;;1.20;;
37355;SDS011;48747;50.250;18.848;2022-07-12T09:03:43;7.33;;;1.40;;
37355;SDS011;48747;50.250;18.848;2022-07-12T09:08:05;4.12;;;1.27;;
37355;SDS011;48747;50.250;18.848;2022-07-12T09:10:08;6.37;;;1.50;;
37355;SDS011;48747;50.250;18.848;2022-07-12T09:12:34;1.57;;;1.12;;
37355;SDS011;48747;50.250;18.848;2022-07-12T09:14:25;3.52;;;1.42;;
37355;SDS011;48747;50.250;18.848;2022-07-12T09:16:30;4.10;;;1.12;;
37355;SDS011;48747;50.250;18.848;2022-07-12T09:18:33;5.58;;;1.30;;
37355;SDS011;48747;50.250;18.848;2022-07-12T09:20:38;3.45;;;1.37;;
37355;SDS011;48747;50.250;18.848;2022-07-12T09:22:47;8.85;;;1.50;;
37355;SDS011;48747;50.250;18.848;2022-07-12T09:24:49;2.70;;;1.30;;
37355;SDS011;48747;50.250;18.848;2022-07-12T09:27:01;7.50;;;1.40;;
37355;SDS011;48747;50.250;18.848;2022-07-12T09:29:06;5.58;;;1.57;;
37355;SDS011;48747;50.250;18.848;2022-07-12T09:31:13;7.35;;;1.50;;
37355;SDS011;48747;50.250;18.848;2022-07-12T09:33:18;4.72;;;1.20;;
37355;SDS011;48747;50.250;18.848;2022-07-12T09:35:40;9.45;;;1.45;;
37355;SDS011;48747;50.250;18.848;2022-07-12T09:38:08;13.97;;;1.70;;
37355;SDS011;48747;50.250;18.848;2022-07-12T09:40:11;4.62;;;1.40;;
37355;SDS011;48747;50.250;18.848;2022-07-12T09:42:15;3.85;;;1.45;;
37355;SDS011;48747;50.250;18.848;2022-07-12T09:44:19;4.12;;;1.50;;
37355;SDS011;48747;50.250;18.848;2022-07-12T09:46:23;3.80;;;1.50;;
37355;SDS011;48747;50.250;18.848;2022-07-12T09:48:31;7.92;;;1.25;;
37355;SDS011;48747;50.250;18.848;2022-07-12T09:50:36;5.80;;;1.20;;
37355;SDS011;48747;50.250;18.848;2022-07-12T09:52:40;7.03;;;1.60;;
37355;SDS011;48747;50.250;18.848;2022-07-12T09:54:45;5.80;;;1.15;;
37355;SDS011;48747;50.250;18.848;2022-07-12T09:56:50;2.72;;;1.55;;
37355;SDS011;48747;50.250;18.848;2022-07-12T09:58:57;4.28;;;1.15;;
37355;SDS011;48747;50.250;18.848;2022-07-12T10:01:01;5.03;;;1.20;;
37355;SDS011;48747;50.250;18.848;2022-07-12T10:03:06;3.95;;;1.32;;
37355;SDS011;48747;50.250;18.848;2022-07-12T10:05:10;3.77;;;1.40;;
37355;SDS011;48747;50.250;18.848;2022-07-12T10:07:14;5.55;;;1.20;;
37355;SDS011;48747;50.250;18.848;2022-07-12T10:09:22;5.45;;;1.30;;
37355;SDS011;48747;50.250;18.848;2022-07-12T10:11:34;1.98;;;0.90;;
37355;SDS011;48747;50.250;18.848;2022-07-12T10:13:44;2.33;;;0.88;;
37355;SDS011;48747;50.250;18.848;2022-07-12T10:15:50;2.65;;;1.20;;
37355;SDS011;48747;50.250;18.848;2022-07-12T10:18:11;4.70;;;1.27;;
37355;SDS011;48747;50.250;18.848;2022-07-12T10:22:23;5.78;;;2.55;;
37355;SDS011;48747;50.250;18.848;2022-07-12T10:26:42;5.90;;;3.58;;
37355;SDS011;48747;50.250;18.848;2022-07-12T10:28:56;7.37;;;4.17;;
37355;SDS011;48747;50.250;18.848;2022-07-12T10:33:02;5.33;;;3.10;;
37355;SDS011;48747;50.250;18.848;2022-07-12T10:35:12;7.05;;;4.28;;
37355;SDS011;48747;50.250;18.848;2022-07-12T10:37:21;13.58;;;3.12;;
37355;SDS011;48747;50.250;18.848;2022-07-12T10:39:27;4.80;;;2.33;;
37355;SDS011;48747;50.250;18.848;2022-07-12T10:41:31;5.35;;;2.33;;
37355;SDS011;48747;50.250;18.848;2022-07-12T10:43:35;18.60;;;17.15;;
37355;SDS011;48747;50.250;18.848;2022-07-12T10:45:55;18.55;;;17.15;;
37355;SDS011;48747;50.250;18.848;2022-07-12T10:48:05;23.92;;;21.93;;
37355;SDS011;48747;50.250;18.848;2022-07-12T10:50:10;25.27;;;23.27;;
37355;SDS011;48747;50.250;18.848;2022-07-12T10:52:17;8.90;;;5.78;;
37355;SDS011;48747;50.250;18.848;2022-07-12T10:54:27;8.50;;;6.83;;
37355;SDS011;48747;50.250;18.848;2022-07-12T10:56:30;9.90;;;8.98;;
37355;SDS011;48747;50.250;18.848;2022-07-12T10:58:35;10.08;;;8.28;;
37355;SDS011;48747;50.250;18.848;2022-07-12T11:00:40;26.15;;;24.10;;
37355;SDS011;48747;50.250;18.848;2022-07-12T11:02:43;8.20;;;4.33;;
37355;SDS011;48747;50.250;18.848;2022-07-12T11:04:46;9.75;;;8.80;;
37355;SDS011;48747;50.250;18.848;2022-07-12T11:06:49;6.53;;;3.42;;
37355;SDS011;48747;50.250;18.848;2022-07-12T11:08:59;9.20;;;7.87;;
37355;SDS011;48747;50.250;18.848;2022-07-12T11:11:04;13.40;;;12.45;;
37355;SDS011;48747;50.250;18.848;2022-07-12T11:13:21;6.33;;;2.87;;
37355;SDS011;48747;50.250;18.848;2022-07-12T11:15:28;6.90;;;2.45;;
37355;SDS011;48747;50.250;18.848;2022-07-12T11:17:31;9.20;;;4.08;;
37355;SDS011;48747;50.250;18.848;2022-07-12T11:19:35;6.50;;;3.02;;
37355;SDS011;48747;50.250;18.848;2022-07-12T11:21:42;5.50;;;2.75;;
37355;SDS011;48747;50.250;18.848;2022-07-12T11:23:47;6.25;;;1.82;;
37355;SDS011;48747;50.250;18.848;2022-07-12T11:25:50;4.33;;;1.57;;
37355;SDS011;48747;50.250;18.848;2022-07-12T11:27:56;6.00;;;1.80;;
37355;SDS011;48747;50.250;18.848;2022-07-12T11:30:01;7.25;;;1.80;;
37355;SDS011;48747;50.250;18.848;2022-07-12T11:32:06;2.62;;;1.60;;
37355;SDS011;48747;50.250;18.848;2022-07-12T11:34:25;3.95;;;1.60;;
37355;SDS011;48747;50.250;18.848;2022-07-12T11:36:28;6.65;;;1.90;;
37355;SDS011;48747;50.250;18.848;2022-07-12T11:38:33;6.30;;;1.40;;
37355;SDS011;48747;50.250;18.848;2022-07-12T11:40:37;3.85;;;1.80;;
37355;SDS011;48747;50.250;18.848;2022-07-12T11:42:51;4.28;;;1.60;;
37355;SDS011;48747;50.250;18.848;2022-07-12T11:44:55;9.00;;;1.75;;
37355;SDS011;48747;50.250;18.848;2022-07-12T11:46:58;4.42;;;1.17;;
37355;SDS011;48747;50.250;18.848;2022-07-12T11:49:01;5.17;;;1.45;;
37355;SDS011;48747;50.250;18.848;2022-07-12T11:51:05;2.77;;;1.72;;
37355;SDS011;48747;50.250;18.848;2022-07-12T11:53:18;1.87;;;1.02;;
37355;SDS011;48747;50.250;18.848;2022-07-12T11:55:28;2.15;;;1.27;;
37355;SDS011;48747;50.250;18.848;2022-07-12T11:57:31;4.10;;;1.40;;
37355;SDS011;48747;50.250;18.848;2022-07-12T11:59:40;2.62;;;1.10;;
37355;SDS011;48747;50.250;18.848;2022-07-12T12:01:41;3.98;;;1.00;;
37355;SDS011;48747;50.250;18.848;2022-07-12T12:03:45;3.98;;;1.20;;
37355;SDS011;48747;50.250;18.848;2022-07-12T12:05:49;4.92;;;1.10;;
37355;SDS011;48747;50.250;18.848;2022-07-12T12:07:54;3.95;;;1.22;;
37355;SDS011;48747;50.250;18.848;2022-07-12T12:12:03;2.52;;;0.98;;
37355;SDS011;48747;50.250;18.848;2022-07-12T12:14:09;12.15;;;1.50;;
37355;SDS011;48747;50.250;18.848;2022-07-12T12:16:17;4.10;;;1.00;;
37355;SDS011;48747;50.250;18.848;2022-07-12T12:18:23;2.02;;;1.10;;
37355;SDS011;48747;50.250;18.848;2022-07-12T12:20:32;2.00;;;1.10;;
37355;SDS011;48747;50.250;18.848;2022-07-12T12:22:37;2.40;;;1.27;;
37355;SDS011;48747;50.250;18.848;2022-07-12T12:24:56;4.65;;;1.20;;
37355;SDS011;48747;50.250;18.848;2022-07-12T12:26:46;1.30;;;0.98;;